Time;durP1;ratioP1;P1;durP2;ratioP2;P2;SDS_P1;SDS_P2;PMS_P1;PMS_P2;Temp;Humidity;BMP_temperature;BMP_pressure;BME280_temperature;BME280_humidity;BME280_pressure;Samples;Min_cycle;Max_cycle;Signal;HPM_P1;HPM_P2
2022/01/01 00:00:16;;;;;;;13.60;8.35;;;;;;;;;;5013284;28;20046;-58
2022/01/01 00:02:43;;;;;;;;;;;;;;;;;;5013574;28;20099;-60
2022/01/01 00:05:11;;;;;;;10.05;6.18;;;;;;;;;;5012966;28;19921;-63
2022/01/01 00:07:39;;;;;;;9.27;6.30;;;;;;;;;;5012972;28;20141;-65
2022/01/01 00:10:07;;;;;;;8.30;5.50;;;;;;;;;;5013586;28;20112;-68
2022/01/01 00:12:35;;;;;;;8.15;6.03;;;;;;;;;;5013274;28;20052;-61
2022/01/01 00:15:02;;;;;;;8.15;5.00;;;;;;;;;;5013029;28;20050;-60
2022/01/01 00:17:30;;;;;;;9.70;6.63;;;;;;;;;;5012539;28;20535;-60
2022/01/01 00:19:57;;;;;;;7.97;4.80;;;;;;;;;;5011883;28;20052;-60
2022/01/01 00:22:24;;;;;;;6.90;4.30;;;;;;;;;;5012823;28;20410;-60
2022/01/01 00:24:51;;;;;;;7.45;4.57;;;;;;;;;;5012760;28;20128;-61
2022/01/01 00:27:18;;;;;;;7.18;4.40;;;;;;;;;;5012698;28;20061;-61
2022/01/01 00:29:45;;;;;;;8.25;4.53;;;;;;;;;;5012842;28;20522;-61
2022/01/01 00:32:12;;;;;;;6.50;4.22;;;;;;;;;;5012595;28;20052;-59
2022/01/01 00:34:41;;;;;;;6.60;3.97;;;;;;;;;;5012473;28;20081;-59
2022/01/01 00:37:08;;;;;;;5.78;3.40;;;;;;;;;;5012452;28;20061;-59
2022/01/01 00:39:34;;;;;;;7.47;3.78;;;;;;;;;;5012537;28;20212;-61
2022/01/01 00:42:02;;;;;;;6.10;3.50;;;;;;;;;;5012786;28;20052;-61
2022/01/01 00:44:32;;;;;;;5.93;3.80;;;;;;;;;;5012626;28;20049;-62
2022/01/01 00:46:59;;;;;;;6.28;3.90;;;;;;;;;;5012130;28;20049;-62
2022/01/01 00:49:26;;;;;;;6.85;3.80;;;;;;;;;;5012371;28;20046;-62
2022/01/01 00:51:54;;;;;;;5.97;3.75;;;;;;;;;;5012360;28;20096;-62
2022/01/01 00:54:22;;;;;;;6.90;3.90;;;;;;;;;;5012391;28;20046;-62
2022/01/01 00:56:49;;;;;;;6.93;3.80;;;;;;;;;;5012212;28;20438;-62
2022/01/01 00:59:16;;;;;;;6.22;3.47;;;;;;;;;;5012129;28;20074;-62
2022/01/01 01:01:43;;;;;;;7.30;4.20;;;;;;;;;;5012260;28;20042;-62
2022/01/01 01:04:10;;;;;;;6.57;3.80;;;;;;;;;;5012083;28;20053;-62
2022/01/01 01:06:37;;;;;;;8.23;4.25;;;;;;;;;;5012265;28;20046;-61
2022/01/01 01:09:05;;;;;;;7.18;3.88;;;;;;;;;;5011858;28;20053;-62
2022/01/01 01:11:41;;;;;;;6.60;4.00;;;;;;;;;;5012400;28;20057;-62
2022/01/01 01:14:10;;;;;;;6.70;4.45;;;;;;;;;;5011347;28;20057;-62
2022/01/01 01:16:37;;;;;;;7.13;4.07;;;;;;;;;;5011869;28;20510;-62
2022/01/01 01:19:04;;;;;;;7.30;4.40;;;;;;;;;;5011692;28;20052;-62
2022/01/01 01:21:31;;;;;;;7.28;4.53;;;;;;;;;;5011600;28;20046;-62
2022/01/01 01:23:58;;;;;;;7.43;4.35;;;;;;;;;;5011545;28;20060;-62
2022/01/01 01:26:28;;;;;;;8.38;4.32;;;;;;;;;;5011424;28;20088;-62
2022/01/01 01:28:56;;;;;;;8.80;5.00;;;;;;;;;;5011613;28;20057;-62
2022/01/01 01:31:24;;;;;;;6.88;4.38;;;;;;;;;;5010773;28;20065;-62
2022/01/01 01:33:51;;;;;;;7.95;4.72;;;;;;;;;;5011543;28;20415;-62
2022/01/01 01:36:19;;;;;;;8.32;5.03;;;;;;;;;;5011308;28;20049;-62
2022/01/01 01:38:46;;;;;;;8.65;4.45;;;;;;;;;;5011271;28;20518;-62
2022/01/01 01:41:12;;;;;;;7.60;4.35;;;;;;;;;;5011313;28;20046;-62
2022/01/01 01:43:41;;;;;;;7.47;4.57;;;;;;;;;;5011364;28;20137;-61
2022/01/01 01:46:12;;;;;;;7.57;4.38;;;;;;;;;;5011328;28;20050;-61
2022/01/01 01:48:40;;;;;;;7.63;4.35;;;;;;;;;;5010870;28;20046;-62
2022/01/01 01:51:07;;;;;;;7.72;4.13;;;;;;;;;;5011186;28;20181;-60
2022/01/01 01:53:34;;;;;;;11.95;6.35;;;;;;;;;;5011333;28;20064;-61
2022/01/01 01:56:01;;;;;;;8.50;4.63;;;;;;;;;;5009599;23;20069;-59
2022/01/01 01:58:30;;;;;;;8.20;5.00;;;;;;;;;;4990532;28;20054;-60
2022/01/01 02:03:43;;;;;;;7.28;4.05;;;;;;;;;;4991310;28;20061;-59
2022/01/01 02:06:10;;;;;;;7.78;4.07;;;;;;;;;;4992042;28;20495;-59
2022/01/01 02:08:37;;;;;;;6.55;3.60;;;;;;;;;;4988740;28;20050;-60
2022/01/01 02:11:04;;;;;;;8.10;3.67;;;;;;;;;;4977325;28;20053;-58
2022/01/01 02:13:35;;;;;;;6.53;3.97;;;;;;;;;;4982954;28;20042;-59
2022/01/01 02:16:28;;;;;;;;;;;;;;;;;;4984229;28;20051;-59
2022/01/01 02:18:56;;;;;;;5.88;3.88;;;;;;;;;;4977852;28;19957;-59
2022/01/01 02:21:24;;;;;;;7.53;4.25;;;;;;;;;;4973667;28;20475;-60
2022/01/01 02:23:57;;;;;;;7.25;4.22;;;;;;;;;;4974101;28;20055;-59
2022/01/01 02:26:30;;;;;;;9.68;4.85;;;;;;;;;;4992975;28;20189;-57
2022/01/01 02:28:59;;;;;;;7.20;4.18;;;;;;;;;;4992761;28;20137;-58
2022/01/01 02:31:26;;;;;;;7.78;4.25;;;;;;;;;;4992564;28;20050;-56
2022/01/01 02:33:53;;;;;;;7.15;4.07;;;;;;;;;;4992759;28;20061;-56
2022/01/01 02:36:32;;;;;;;8.40;3.88;;;;;;;;;;4992917;28;20050;-57
2022/01/01 02:38:59;;;;;;;5.47;3.50;;;;;;;;;;4992754;28;20508;-56
2022/01/01 02:41:27;;;;;;;7.65;4.53;;;;;;;;;;4992164;28;20081;-58
2022/01/01 02:43:54;;;;;;;8.00;4.53;;;;;;;;;;4992621;28;20514;-58
2022/01/01 02:46:21;;;;;;;7.28;4.53;;;;;;;;;;4992698;28;20054;-58
2022/01/01 02:48:48;;;;;;;7.55;4.68;;;;;;;;;;4992443;28;20065;-57
2022/01/01 02:51:15;;;;;;;8.15;4.18;;;;;;;;;;4992652;28;20046;-57
2022/01/01 02:53:45;;;;;;;7.20;3.78;;;;;;;;;;4992864;28;20047;-56
2022/01/01 02:56:12;;;;;;;7.75;3.97;;;;;;;;;;4992381;28;20545;-58
2022/01/01 02:58:39;;;;;;;6.60;3.88;;;;;;;;;;4992154;28;20058;-54
2022/01/01 03:01:06;;;;;;;6.88;3.50;;;;;;;;;;4992405;28;20051;-57
2022/01/01 03:03:33;;;;;;;6.95;4.10;;;;;;;;;;4992335;28;20050;-57
2022/01/01 03:06:00;;;;;;;7.13;3.50;;;;;;;;;;4992494;28;20058;-58
2022/01/01 03:08:27;;;;;;;6.53;3.67;;;;;;;;;;4992201;28;20073;-57
2022/01/01 03:10:55;;;;;;;6.55;3.42;;;;;;;;;;4992699;28;20050;-57
2022/01/01 03:13:22;;;;;;;6.32;3.65;;;;;;;;;;4992197;28;20050;-56
2022/01/01 03:15:49;;;;;;;6.28;3.90;;;;;;;;;;4992347;28;20051;-56
2022/01/01 03:18:16;;;;;;;5.88;3.55;;;;;;;;;;4992079;28;20267;-57
2022/01/01 03:20:44;;;;;;;6.78;3.33;;;;;;;;;;4992299;28;20073;-55
2022/01/01 03:23:11;;;;;;;6.70;3.90;;;;;;;;;;4992057;28;20054;-56
2022/01/01 03:25:38;;;;;;;6.22;3.42;;;;;;;;;;4992432;28;20054;-57
2022/01/01 03:28:06;;;;;;;6.28;3.85;;;;;;;;;;4991936;28;20434;-57
2022/01/01 03:30:33;;;;;;;6.07;4.07;;;;;;;;;;4992176;28;20061;-57
2022/01/01 03:33:00;;;;;;;6.07;3.55;;;;;;;;;;4992193;28;20058;-57
2022/01/01 03:35:27;;;;;;;6.32;3.80;;;;;;;;;;4992513;28;20051;-58
2022/01/01 03:37:54;;;;;;;7.53;3.85;;;;;;;;;;4991919;28;20050;-53
2022/01/01 03:40:21;;;;;;;5.28;3.10;;;;;;;;;;4992206;28;20046;-57
2022/01/01 03:42:48;;;;;;;6.40;3.30;;;;;;;;;;4992079;28;20059;-56
2022/01/01 03:45:16;;;;;;;7.70;4.13;;;;;;;;;;4992077;28;20046;-56
2022/01/01 03:47:43;;;;;;;5.88;3.40;;;;;;;;;;4991964;28;20073;-58
2022/01/01 03:50:10;;;;;;;6.50;3.13;;;;;;;;;;4992095;28;20105;-56
2022/01/01 03:52:42;;;;;;;7.72;3.67;;;;;;;;;;4992138;28;20057;-57
2022/01/01 03:55:09;;;;;;;6.85;4.13;;;;;;;;;;4994628;28;20053;-57
2022/01/01 03:57:36;;;;;;;7.40;3.85;;;;;;;;;;4995466;28;20495;-57
2022/01/01 04:00:05;;;;;;;6.68;3.60;;;;;;;;;;4995783;28;20054;-56
2022/01/01 04:02:34;;;;;;;5.60;3.60;;;;;;;;;;4995305;28;20511;-57
2022/01/01 04:05:03;;;;;;;6.55;3.35;;;;;;;;;;4995220;28;20407;-58
2022/01/01 04:07:30;;;;;;;6.97;3.70;;;;;;;;;;4995126;28;20056;-57
2022/01/01 04:09:57;;;;;;;6.85;3.80;;;;;;;;;;4995188;28;20077;-56
2022/01/01 04:12:25;;;;;;;7.20;4.03;;;;;;;;;;4995202;28;20060;-55
2022/01/01 04:14:51;;;;;;;5.55;3.20;;;;;;;;;;4995052;28;20046;-56
2022/01/01 04:17:18;;;;;;;6.28;3.65;;;;;;;;;;4995042;28;20085;-56
2022/01/01 04:19:47;;;;;;;6.93;3.83;;;;;;;;;;4994828;28;20108;-55
2022/01/01 04:22:16;;;;;;;7.93;3.63;;;;;;;;;;4994784;28;20050;-55
2022/01/01 04:24:43;;;;;;;6.72;3.67;;;;;;;;;;4994689;28;20058;-56
2022/01/01 04:27:11;;;;;;;6.70;3.50;;;;;;;;;;4995134;28;20050;-55
2022/01/01 04:29:39;;;;;;;5.47;3.05;;;;;;;;;;4994745;28;20144;-57
2022/01/01 04:32:09;;;;;;;5.45;3.72;;;;;;;;;;4994833;28;20058;-57
2022/01/01 04:34:36;;;;;;;6.22;3.40;;;;;;;;;;4994722;28;20054;-57
2022/01/01 04:37:11;;;;;;;8.50;3.78;;;;;;;;;;4994792;28;20415;-58
2022/01/01 04:39:38;;;;;;;6.80;3.60;;;;;;;;;;4994775;28;20463;-58
2022/01/01 04:42:05;;;;;;;6.75;3.45;;;;;;;;;;4994681;28;20508;-57
2022/01/01 04:44:32;;;;;;;6.70;3.60;;;;;;;;;;4994556;28;20062;-56
2022/01/01 04:46:59;;;;;;;7.38;3.85;;;;;;;;;;4994657;28;20053;-57
2022/01/01 04:49:26;;;;;;;6.97;3.80;;;;;;;;;;4994549;28;20062;-56
2022/01/01 04:51:53;;;;;;;8.07;3.72;;;;;;;;;;4994495;28;20144;-58
2022/01/01 04:54:21;;;;;;;6.88;3.42;;;;;;;;;;4994532;28;20050;-58
2022/01/01 04:56:48;;;;;;;7.15;3.70;;;;;;;;;;4994200;28;20118;-54
2022/01/01 04:59:16;;;;;;;7.43;3.50;;;;;;;;;;4994124;28;20054;-56
2022/01/01 05:01:44;;;;;;;6.55;3.40;;;;;;;;;;4994395;28;20054;-57
2022/01/01 05:04:11;;;;;;;6.43;3.42;;;;;;;;;;4994042;28;20050;-57
2022/01/01 05:06:40;;;;;;;6.20;3.40;;;;;;;;;;4993778;28;20076;-57
2022/01/01 05:09:07;;;;;;;7.18;3.40;;;;;;;;;;4994692;28;20058;-57
2022/01/01 05:11:35;;;;;;;6.18;3.55;;;;;;;;;;4994039;28;20636;-54
2022/01/01 05:14:02;;;;;;;6.50;3.17;;;;;;;;;;4993959;28;20046;-58
2022/01/01 05:16:29;;;;;;;6.63;3.45;;;;;;;;;;4993754;28;20050;-57
2022/01/01 05:18:56;;;;;;;6.97;3.70;;;;;;;;;;4993944;28;20460;-55
2022/01/01 05:21:23;;;;;;;6.10;3.50;;;;;;;;;;4993828;28;20057;-58
2022/01/01 05:23:50;;;;;;;6.78;3.78;;;;;;;;;;4993870;28;20419;-55
2022/01/01 05:26:17;;;;;;;6.13;3.25;;;;;;;;;;4993695;28;20077;-57
2022/01/01 05:28:49;;;;;;;6.35;3.25;;;;;;;;;;4993707;28;20136;-58
2022/01/01 05:31:16;;;;;;;5.80;3.75;;;;;;;;;;4993941;28;20066;-57
2022/01/01 05:33:43;;;;;;;7.68;3.88;;;;;;;;;;4993776;28;20137;-57
2022/01/01 05:36:09;;;;;;;6.68;3.58;;;;;;;;;;4993891;28;20089;-58
2022/01/01 05:38:36;;;;;;;6.18;3.55;;;;;;;;;;4993275;28;20521;-57
2022/01/01 05:41:03;;;;;;;6.38;4.05;;;;;;;;;;4993509;28;20065;-57
2022/01/01 05:43:30;;;;;;;6.43;3.05;;;;;;;;;;4993500;28;20047;-53
2022/01/01 05:45:59;;;;;;;6.93;3.78;;;;;;;;;;4993524;28;20050;-54
2022/01/01 05:48:26;;;;;;;5.90;3.30;;;;;;;;;;4993410;28;20525;-57
2022/01/01 05:50:53;;;;;;;6.82;3.22;;;;;;;;;;4993570;28;20053;-55
2022/01/01 05:53:21;;;;;;;6.70;3.55;;;;;;;;;;4993325;28;20054;-55
2022/01/01 05:55:48;;;;;;;6.40;3.67;;;;;;;;;;4993124;28;20519;-57
2022/01/01 05:58:15;;;;;;;8.00;3.45;;;;;;;;;;4993080;28;20069;-55
2022/01/01 06:00:43;;;;;;;6.85;3.53;;;;;;;;;;4993137;28;20511;-57
2022/01/01 06:03:11;;;;;;;6.95;3.38;;;;;;;;;;4993213;28;20047;-56
2022/01/01 06:05:38;;;;;;;7.28;3.65;;;;;;;;;;4993114;28;20050;-59
2022/01/01 06:08:05;;;;;;;5.82;3.22;;;;;;;;;;4993042;28;20061;-57
2022/01/01 06:10:32;;;;;;;6.35;3.53;;;;;;;;;;4993149;28;20058;-57
2022/01/01 06:12:59;;;;;;;6.93;4.13;;;;;;;;;;4993062;28;20050;-58
2022/01/01 06:15:26;;;;;;;7.60;3.58;;;;;;;;;;4993218;28;20046;-55
2022/01/01 06:17:53;;;;;;;9.18;3.70;;;;;;;;;;4992348;28;20046;-59
2022/01/01 06:20:22;;;;;;;6.45;3.50;;;;;;;;;;4992894;28;20077;-59
2022/01/01 06:22:48;;;;;;;6.18;3.55;;;;;;;;;;4992822;28;20054;-60
2022/01/01 06:25:15;;;;;;;8.63;3.78;;;;;;;;;;4992897;28;20389;-57
2022/01/01 06:27:42;;;;;;;6.63;3.53;;;;;;;;;;4992764;28;20051;-56
2022/01/01 06:30:11;;;;;;;6.05;3.80;;;;;;;;;;4992981;28;20396;-59
2022/01/01 06:32:37;;;;;;;7.00;3.92;;;;;;;;;;4992822;28;20054;-58
2022/01/01 06:35:05;;;;;;;7.00;3.78;;;;;;;;;;4992964;28;20047;-56
2022/01/01 06:37:33;;;;;;;7.05;4.20;;;;;;;;;;4992752;28;20053;-59
2022/01/01 06:40:00;;;;;;;8.80;3.67;;;;;;;;;;4993062;28;20054;-60
2022/01/01 06:42:27;;;;;;;8.27;4.00;;;;;;;;;;4992655;28;20270;-59
2022/01/01 06:44:54;;;;;;;7.43;3.70;;;;;;;;;;4992699;28;20053;-59
2022/01/01 06:47:21;;;;;;;6.57;3.10;;;;;;;;;;4992619;28;20054;-59
2022/01/01 06:49:48;;;;;;;6.80;3.28;;;;;;;;;;4992717;28;20545;-59
2022/01/01 06:52:15;;;;;;;5.28;2.92;;;;;;;;;;4992640;28;20050;-62
2022/01/01 06:54:43;;;;;;;5.70;3.20;;;;;;;;;;4992574;28;20069;-58
2022/01/01 06:57:10;;;;;;;6.68;3.47;;;;;;;;;;4992450;28;20047;-58
2022/01/01 06:59:37;;;;;;;6.78;3.80;;;;;;;;;;4992652;28;20062;-60
2022/01/01 07:02:04;;;;;;;6.38;3.28;;;;;;;;;;4992394;28;20042;-60
2022/01/01 07:04:31;;;;;;;4.93;3.15;;;;;;;;;;4992978;28;20389;-60
2022/01/01 07:06:58;;;;;;;5.97;2.83;;;;;;;;;;4992478;28;20057;-57
2022/01/01 07:09:25;;;;;;;8.52;3.50;;;;;;;;;;4992483;28;20100;-60
2022/01/01 07:11:57;;;;;;;5.43;2.90;;;;;;;;;;4992572;28;20053;-57
2022/01/01 07:14:23;;;;;;;6.00;3.10;;;;;;;;;;4992737;28;20096;-59
2022/01/01 07:16:51;;;;;;;5.63;3.20;;;;;;;;;;4992498;28;20407;-59
2022/01/01 07:19:18;;;;;;;6.57;3.55;;;;;;;;;;4992470;28;20054;-60
2022/01/01 07:21:45;;;;;;;5.20;2.78;;;;;;;;;;4992555;28;20057;-58
2022/01/01 07:24:12;;;;;;;6.43;3.55;;;;;;;;;;4992305;28;20053;-58
2022/01/01 07:26:38;;;;;;;7.50;4.00;;;;;;;;;;4992423;28;20049;-59
2022/01/01 07:29:07;;;;;;;7.05;3.67;;;;;;;;;;4995102;28;20046;-59
2022/01/01 07:31:34;;;;;;;6.70;3.90;;;;;;;;;;4996360;28;20054;-60
2022/01/01 07:34:01;;;;;;;5.65;3.70;;;;;;;;;;4996373;28;20411;-57
2022/01/01 07:36:28;;;;;;;7.00;3.45;;;;;;;;;;4996273;28;20420;-57
2022/01/01 07:38:55;;;;;;;5.85;3.70;;;;;;;;;;4995979;28;20050;-59
2022/01/01 07:41:22;;;;;;;5.70;3.20;;;;;;;;;;4995833;28;20054;-60
2022/01/01 07:43:49;;;;;;;6.20;3.17;;;;;;;;;;4995821;28;20057;-60
2022/01/01 07:46:17;;;;;;;5.13;2.83;;;;;;;;;;4995752;28;20057;-60
2022/01/01 07:48:44;;;;;;;7.85;3.50;;;;;;;;;;4996017;28;20065;-61
2022/01/01 07:51:11;;;;;;;6.70;3.40;;;;;;;;;;4995769;28;20058;-61
2022/01/01 07:53:38;;;;;;;6.32;3.40;;;;;;;;;;4995575;28;20050;-59
2022/01/01 07:56:05;;;;;;;5.90;3.00;;;;;;;;;;5008672;23;20330;-63
2022/01/01 07:58:32;;;;;;;6.85;3.45;;;;;;;;;;5014848;28;20372;-61
2022/01/01 08:00:59;;;;;;;6.82;3.20;;;;;;;;;;5014882;28;20052;-61
2022/01/01 08:03:27;;;;;;;5.93;2.85;;;;;;;;;;5014768;28;20057;-61
2022/01/01 08:05:55;;;;;;;6.38;2.95;;;;;;;;;;5015053;28;20050;-62
2022/01/01 08:08:21;;;;;;;7.05;3.10;;;;;;;;;;5014633;28;20074;-61
2022/01/01 08:10:49;;;;;;;6.20;3.03;;;;;;;;;;5014871;28;20065;-62
2022/01/01 08:13:24;;;;;;;6.60;3.28;;;;;;;;;;5014641;28;20053;-62
2022/01/01 08:15:51;;;;;;;6.07;2.72;;;;;;;;;;5015041;28;20070;-62
2022/01/01 08:18:18;;;;;;;5.95;3.40;;;;;;;;;;5014593;28;20046;-62
2022/01/01 08:20:47;;;;;;;5.63;3.17;;;;;;;;;;5014644;28;20050;-62
2022/01/01 08:23:15;;;;;;;6.60;3.30;;;;;;;;;;5014503;28;20049;-62
2022/01/01 08:25:42;;;;;;;6.15;3.03;;;;;;;;;;5014872;28;20041;-61
2022/01/01 08:28:10;;;;;;;6.88;3.35;;;;;;;;;;5014512;28;20054;-61
2022/01/01 08:30:37;;;;;;;6.32;2.97;;;;;;;;;;5014596;28;20093;-62
2022/01/01 08:33:04;;;;;;;6.13;3.50;;;;;;;;;;5014561;28;20046;-64
2022/01/01 08:35:32;;;;;;;6.50;3.25;;;;;;;;;;5014515;28;20052;-63
2022/01/01 08:38:01;;;;;;;6.45;3.08;;;;;;;;;;5014127;28;20058;-62
2022/01/01 08:40:29;;;;;;;5.53;2.72;;;;;;;;;;5013684;28;20406;-62
2022/01/01 08:42:56;;;;;;;6.10;2.90;;;;;;;;;;5014339;28;20417;-63
2022/01/01 08:45:23;;;;;;;5.60;2.92;;;;;;;;;;5014248;28;20057;-62
2022/01/01 08:47:51;;;;;;;6.35;3.08;;;;;;;;;;5014085;28;20399;-62
2022/01/01 08:50:18;;;;;;;5.60;3.33;;;;;;;;;;5014200;28;20054;-62
2022/01/01 08:52:45;;;;;;;5.40;2.90;;;;;;;;;;5014226;28;20054;-62
2022/01/01 08:55:13;;;;;;;6.47;3.28;;;;;;;;;;5014073;28;20120;-62
2022/01/01 08:57:40;;;;;;;5.63;3.00;;;;;;;;;;5013678;28;20058;-63
2022/01/01 09:00:12;;;;;;;6.45;3.38;;;;;;;;;;5013894;28;20069;-63
2022/01/01 09:02:39;;;;;;;6.80;3.60;;;;;;;;;;5013775;28;20061;-62
2022/01/01 09:05:07;;;;;;;5.75;3.03;;;;;;;;;;5013642;28;20061;-62
2022/01/01 09:07:34;;;;;;;6.78;3.60;;;;;;;;;;5013780;28;20128;-62
2022/01/01 09:10:03;;;;;;;5.82;3.40;;;;;;;;;;5013534;28;20057;-62
2022/01/01 09:12:32;;;;;;;7.45;3.45;;;;;;;;;;5013512;28;20050;-62
2022/01/01 09:14:59;;;;;;;6.82;3.42;;;;;;;;;;5013570;28;20053;-62
2022/01/01 09:17:26;;;;;;;6.32;3.17;;;;;;;;;;5013284;28;20173;-62
2022/01/01 09:19:53;;;;;;;5.97;3.17;;;;;;;;;;5013332;28;20050;-63
2022/01/01 09:22:20;;;;;;;6.28;3.47;;;;;;;;;;5013337;28;20045;-62
2022/01/01 09:24:47;;;;;;;7.68;3.88;;;;;;;;;;5013250;28;20050;-62
2022/01/01 09:27:14;;;;;;;6.43;3.35;;;;;;;;;;5013004;28;20049;-63
2022/01/01 09:29:42;;;;;;;5.97;3.40;;;;;;;;;;5013397;28;20057;-62
2022/01/01 09:32:10;;;;;;;7.28;3.75;;;;;;;;;;5013187;28;20050;-62
2022/01/01 09:34:37;;;;;;;9.65;4.20;;;;;;;;;;5013490;28;20431;-63
2022/01/01 09:37:05;;;;;;;6.13;3.65;;;;;;;;;;5012832;28;20518;-62
2022/01/01 09:39:31;;;;;;;6.80;3.70;;;;;;;;;;5013181;28;20046;-62
2022/01/01 09:41:58;;;;;;;8.20;3.92;;;;;;;;;;5012797;28;20050;-62
2022/01/01 09:44:26;;;;;;;8.07;3.70;;;;;;;;;;5013206;28;20495;-64
2022/01/01 09:46:54;;;;;;;7.40;3.97;;;;;;;;;;5012788;28;20054;-63
2022/01/01 09:49:21;;;;;;;7.05;4.20;;;;;;;;;;5013146;28;20045;-63
2022/01/01 09:51:48;;;;;;;7.15;3.90;;;;;;;;;;5012157;28;20053;-63
2022/01/01 09:54:15;;;;;;;6.82;3.47;;;;;;;;;;5012862;28;20391;-63
2022/01/01 09:56:42;;;;;;;7.43;4.03;;;;;;;;;;5003307;28;20054;-62
2022/01/01 09:59:09;;;;;;;8.10;3.80;;;;;;;;;;4983407;28;20042;-62
2022/01/01 10:01:36;;;;;;;6.93;3.72;;;;;;;;;;4983158;28;20408;-63
2022/01/01 10:04:13;;;;;;;5.97;3.25;;;;;;;;;;4984651;28;20046;-62
2022/01/01 10:06:40;;;;;;;7.00;3.40;;;;;;;;;;4992788;28;20054;-62
2022/01/01 10:09:09;;;;;;;6.78;3.80;;;;;;;;;;4992946;28;20454;-62
2022/01/01 10:11:36;;;;;;;7.90;4.20;;;;;;;;;;4992815;28;20089;-62
2022/01/01 10:14:06;;;;;;;6.97;3.67;;;;;;;;;;4992901;28;20076;-62
2022/01/01 10:16:34;;;;;;;8.10;4.18;;;;;;;;;;4992714;28;20054;-62
2022/01/01 10:19:03;;;;;;;6.95;3.33;;;;;;;;;;4992999;28;20054;-62
2022/01/01 10:21:39;;;;;;;6.37;3.50;;;;;;;;;;4992810;28;20046;-62
2022/01/01 10:24:12;;;;;;;7.88;3.63;;;;;;;;;;4987198;28;20070;-62
2022/01/01 10:29:27;;;;;;;9.25;3.47;;;;;;;;;;4979419;28;20531;-62
2022/01/01 10:31:58;;;;;;;6.85;3.80;;;;;;;;;;4981808;28;20058;-62
2022/01/01 10:34:29;;;;;;;8.98;4.25;;;;;;;;;;4982772;28;20055;-61
2022/01/01 10:36:56;;;;;;;7.50;3.38;;;;;;;;;;4981485;28;20042;-62
2022/01/01 10:39:24;;;;;;;7.40;3.67;;;;;;;;;;4980848;28;20053;-62
2022/01/01 10:41:54;;;;;;;8.77;3.45;;;;;;;;;;4978035;28;20073;-61
2022/01/01 10:44:29;;;;;;;6.10;3.17;;;;;;;;;;4980229;28;20046;-62
2022/01/01 10:46:56;;;;;;;5.90;3.00;;;;;;;;;;4982963;28;20276;-62
2022/01/01 10:49:33;;;;;;;7.53;4.25;;;;;;;;;;4981307;28;20456;-62
2022/01/01 10:52:28;;;;;;;7.47;3.45;;;;;;;;;;4981299;28;20082;-62
2022/01/01 10:54:57;;;;;;;6.50;3.20;;;;;;;;;;4983259;28;20061;-62
2022/01/01 10:57:29;;;;;;;5.75;3.17;;;;;;;;;;4983800;28;20133;-62
2022/01/01 11:00:21;;;;;;;6.63;3.45;;;;;;;;;;4984101;28;20408;-62
2022/01/01 11:02:51;;;;;;;5.82;3.20;;;;;;;;;;4987820;28;20101;-62
2022/01/01 11:05:27;;;;;;;6.15;3.35;;;;;;;;;;4996665;28;20411;-62
2022/01/01 11:07:55;;;;;;;5.70;2.95;;;;;;;;;;4995981;28;20050;-62
2022/01/01 11:10:23;;;;;;;6.20;2.90;;;;;;;;;;4993220;28;20391;-62
2022/01/01 11:12:51;;;;;;;5.20;2.63;;;;;;;;;;4996217;28;20058;-62
2022/01/01 11:15:18;;;;;;;8.10;3.80;;;;;;;;;;4996285;28;20381;-62
2022/01/01 11:17:46;;;;;;;5.85;2.78;;;;;;;;;;4996176;28;20050;-62
2022/01/01 11:20:14;;;;;;;5.38;3.03;;;;;;;;;;4995948;28;20052;-61
2022/01/01 11:22:42;;;;;;;7.00;2.85;;;;;;;;;;4996042;28;20499;-62
2022/01/01 11:25:11;;;;;;;7.13;2.80;;;;;;;;;;4996297;28;20050;-62
2022/01/01 11:27:38;;;;;;;4.72;2.72;;;;;;;;;;4995835;28;20082;-62
2022/01/01 11:30:11;;;;;;;5.75;2.70;;;;;;;;;;4995283;28;20492;-62
2022/01/01 11:32:43;;;;;;;5.78;2.78;;;;;;;;;;4994488;28;20046;-62
2022/01/01 11:35:12;;;;;;;5.72;2.45;;;;;;;;;;4995853;28;20050;-61
2022/01/01 11:37:47;;;;;;;5.60;2.75;;;;;;;;;;4995512;28;20508;-61
2022/01/01 11:40:18;;;;;;;5.28;2.42;;;;;;;;;;4996001;28;20483;-61
2022/01/01 11:42:45;;;;;;;;;;;;;;;;;;4996101;28;20050;-61
2022/01/01 11:45:32;;;;;;;5.47;2.47;;;;;;;;;;4995815;28;19922;-61
2022/01/01 11:48:32;;;;;;;5.18;2.47;;;;;;;;;;4995220;28;20070;-62
2022/01/01 11:51:20;;;;;;;6.55;2.53;;;;;;;;;;4987322;28;20496;-62
2022/01/01 11:54:19;;;;;;;5.20;2.70;;;;;;;;;;4983829;28;20057;-62
2022/01/01 11:57:05;;;;;;;4.45;2.63;;;;;;;;;;4975956;28;20047;-62
2022/01/01 11:59:40;;;;;;;7.10;3.17;;;;;;;;;;4975796;28;20130;-62
2022/01/01 12:02:29;;;;;;;5.72;2.92;;;;;;;;;;4975738;28;20407;-62
2022/01/01 12:05:09;;;;;;;6.25;2.97;;;;;;;;;;4976150;28;20087;-62
2022/01/01 12:07:44;;;;;;;7.15;3.67;;;;;;;;;;4975900;28;20058;-62
2022/01/01 12:10:23;;;;;;;5.85;2.90;;;;;;;;;;4975753;28;20050;-62
2022/01/01 12:12:53;;;;;;;8.07;3.03;;;;;;;;;;4975691;28;20061;-62
2022/01/01 12:15:36;;;;;;;7.13;3.13;;;;;;;;;;4989066;28;20519;-65
2022/01/01 12:18:06;;;;;;;7.05;3.88;;;;;;;;;;4984838;28;20283;-64
2022/01/01 12:20:35;;;;;;;9.57;5.22;;;;;;;;;;4976048;28;20481;-65
2022/01/01 12:23:05;;;;;;;7.75;3.88;;;;;;;;;;4975519;28;20112;-66
2022/01/01 12:25:34;;;;;;;6.20;3.00;;;;;;;;;;4975503;28;20121;-67
2022/01/01 12:28:06;;;;;;;6.82;3.50;;;;;;;;;;4975400;28;20423;-62
2022/01/01 12:30:39;;;;;;;4.75;2.40;;;;;;;;;;4975431;28;20061;-65
2022/01/01 12:33:11;;;;;;;5.43;2.85;;;;;;;;;;4975353;28;20055;-62
2022/01/01 12:35:41;;;;;;;5.85;2.88;;;;;;;;;;4975479;28;20046;-67
2022/01/01 12:38:09;;;;;;;5.20;2.73;;;;;;;;;;4975393;28;20043;-63
2022/01/01 12:40:36;;;;;;;6.95;2.70;;;;;;;;;;4979095;28;20046;-62
2022/01/01 12:43:12;;;;;;;6.93;2.65;;;;;;;;;;4994676;28;20100;-63
2022/01/01 12:45:41;;;;;;;5.53;2.55;;;;;;;;;;4994491;28;20136;-63
2022/01/01 12:48:09;;;;;;;4.53;2.30;;;;;;;;;;4994392;28;20065;-62
2022/01/01 12:50:36;;;;;;;5.55;2.53;;;;;;;;;;4994505;28;20050;-61
2022/01/01 12:53:04;;;;;;;5.70;2.58;;;;;;;;;;4986111;28;20054;-61
2022/01/01 12:55:31;;;;;;;5.50;2.65;;;;;;;;;;4983288;28;20456;-61
2022/01/01 12:58:21;;;;;;;5.75;2.53;;;;;;;;;;4984799;28;20046;-61
2022/01/01 13:00:48;;;;;;;;;;;;;;;;;;4990807;28;20050;-63
2022/01/01 13:03:15;;;;;;;7.25;3.60;;;;;;;;;;4994205;28;19922;-61
2022/01/01 13:05:42;;;;;;;5.30;2.75;;;;;;;;;;4994123;28;20050;-61
2022/01/01 13:08:11;;;;;;;6.50;2.70;;;;;;;;;;4994005;28;20381;-61
2022/01/01 13:10:38;;;;;;;6.82;3.63;;;;;;;;;;4993934;28;20320;-62
2022/01/01 13:13:07;;;;;;;9.07;4.85;;;;;;;;;;4993742;28;20134;-62
2022/01/01 13:15:37;;;;;;;8.57;4.22;;;;;;;;;;4994415;28;20082;-62
2022/01/01 13:18:04;;;;;;;5.47;2.33;;;;;;;;;;4994012;28;20145;-62
2022/01/01 13:20:33;;;;;;;11.80;5.95;;;;;;;;;;4988188;28;20500;-62
2022/01/01 13:23:05;;;;;;;6.22;2.90;;;;;;;;;;4982768;28;20047;-62
2022/01/01 13:25:32;;;;;;;8.15;4.20;;;;;;;;;;4983209;28;20050;-62
2022/01/01 13:27:59;;;;;;;5.32;3.10;;;;;;;;;;4979697;28;20050;-62
2022/01/01 13:30:27;;;;;;;4.63;2.10;;;;;;;;;;4974264;28;20055;-62
2022/01/01 13:32:57;;;;;;;8.93;4.40;;;;;;;;;;4973323;28;20054;-61
2022/01/01 13:35:26;;;;;;;6.72;3.67;;;;;;;;;;4974194;28;20051;-61
2022/01/01 13:37:53;;;;;;;4.57;2.00;;;;;;;;;;4973845;28;20101;-61
2022/01/01 13:40:20;;;;;;;6.25;2.40;;;;;;;;;;4974101;28;20058;-61
2022/01/01 13:42:47;;;;;;;4.10;1.80;;;;;;;;;;4974034;28;20070;-61
2022/01/01 13:45:14;;;;;;;4.32;1.83;;;;;;;;;;4973890;28;20054;-61
2022/01/01 13:47:41;;;;;;;5.07;1.90;;;;;;;;;;4973832;28;20121;-61
2022/01/01 13:50:20;;;;;;;3.17;1.70;;;;;;;;;;4973978;28;20178;-61
2022/01/01 13:52:59;;;;;;;3.72;1.67;;;;;;;;;;4974163;28;20109;-61
2022/01/01 13:55:28;;;;;;;6.57;1.90;;;;;;;;;;4978740;28;20050;-62
2022/01/01 13:57:56;;;;;;;5.15;2.80;;;;;;;;;;4982437;28;20046;-61
2022/01/01 14:00:24;;;;;;;6.15;3.20;;;;;;;;;;4983354;28;20055;-62
2022/01/01 14:02:54;;;;;;;5.25;2.70;;;;;;;;;;4982098;28;20114;-61
2022/01/01 14:05:23;;;;;;;5.90;2.63;;;;;;;;;;4982938;28;20096;-61
2022/01/01 14:07:51;;;;;;;4.18;2.20;;;;;;;;;;4983464;28;20116;-61
2022/01/01 14:10:20;;;;;;;5.43;2.55;;;;;;;;;;4982391;28;20061;-61
2022/01/01 14:12:50;;;;;;;6.32;2.20;;;;;;;;;;4981775;28;20061;-61
2022/01/01 14:15:19;;;;;;;6.57;2.40;;;;;;;;;;4982224;28;20057;-61
2022/01/01 14:18:00;;;;;;;6.35;2.63;;;;;;;;;;4981808;28;20054;-62
2022/01/01 14:20:30;;;;;;;4.60;2.45;;;;;;;;;;4983921;28;20504;-61
2022/01/01 14:22:58;;;;;;;4.70;2.30;;;;;;;;;;4981305;28;20055;-61
2022/01/01 14:25:26;;;;;;;4.57;2.03;;;;;;;;;;5006339;23;20046;-77
2022/01/01 14:27:53;;;;;;;4.25;2.15;;;;;;;;;;5008747;28;20087;-80
2022/01/01 14:30:20;;;;;;;6.05;2.20;;;;;;;;;;5012432;28;20053;-80
2022/01/01 14:32:47;;;;;;;5.45;2.65;;;;;;;;;;5010007;28;20054;-80
2022/01/01 14:35:14;;;;;;;4.97;2.50;;;;;;;;;;5008782;28;20042;-80
2022/01/01 14:37:43;;;;;;;7.22;3.88;;;;;;;;;;4989293;28;20054;-79
2022/01/01 14:40:10;;;;;;;6.35;3.00;;;;;;;;;;4988136;28;20046;-80
2022/01/01 14:42:37;;;;;;;5.00;2.63;;;;;;;;;;4990022;28;20043;-79
2022/01/01 14:45:05;;;;;;;7.28;3.50;;;;;;;;;;4991155;28;20038;-81
2022/01/01 14:47:34;;;;;;;14.07;9.40;;;;;;;;;;4990976;28;20050;-79
2022/01/01 14:50:04;;;;;;;10.57;5.90;;;;;;;;;;4990339;28;20047;-79
2022/01/01 14:52:39;;;;;;;6.65;3.35;;;;;;;;;;4984897;28;20050;-82
2022/01/01 14:55:14;;;;;;;6.07;3.30;;;;;;;;;;4982015;28;20101;-81
2022/01/01 14:57:43;;;;;;;5.28;2.92;;;;;;;;;;4998622;28;20055;-81